sensor_id;sensor_type;location;lat;lon;timestamp;temperature;humidity
19017;DHT22;9641;51.494;6.670;2023-01-13T00:01:38;9.60;99.90
19017;DHT22;9641;51.494;6.670;2023-01-13T00:04:11;9.60;99.90
19017;DHT22;9641;51.494;6.670;2023-01-13T00:06:41;9.60;99.90
19017;DHT22;9641;51.494;6.670;2023-01-13T00:09:10;9.60;99.90
19017;DHT22;9641;51.494;6.670;2023-01-13T00:11:37;9.60;99.90
19017;DHT22;9641;51.494;6.670;2023-01-13T00:14:08;9.60;99.90
19017;DHT22;9641;51.494;6.670;2023-01-13T00:16:37;9.60;99.90
19017;DHT22;9641;51.494;6.670;2023-01-13T00:19:06;9.60;99.90
19017;DHT22;9641;51.494;6.670;2023-01-13T00:21:33;9.60;99.90
19017;DHT22;9641;51.494;6.670;2023-01-13T00:24:02;9.70;99.90
19017;DHT22;9641;51.494;6.670;2023-01-13T00:26:30;9.70;99.90
19017;DHT22;9641;51.494;6.670;2023-01-13T00:29:01;9.80;99.90
19017;DHT22;9641;51.494;6.670;2023-01-13T00:31:34;9.80;99.90
19017;DHT22;9641;51.494;6.670;2023-01-13T00:34:02;9.80;99.90
19017;DHT22;9641;51.494;6.670;2023-01-13T00:36:30;9.80;99.90
19017;DHT22;9641;51.494;6.670;2023-01-13T00:39:01;9.80;99.90
19017;DHT22;9641;51.494;6.670;2023-01-13T00:41:33;9.80;99.90
19017;DHT22;9641;51.494;6.670;2023-01-13T00:44:14;9.80;99.90
19017;DHT22;9641;51.494;6.670;2023-01-13T00:46:45;9.70;99.90
19017;DHT22;9641;51.494;6.670;2023-01-13T00:49:17;9.60;99.90
19017;DHT22;9641;51.494;6.670;2023-01-13T00:51:44;9.60;99.90
19017;DHT22;9641;51.494;6.670;2023-01-13T00:54:14;9.60;99.90
19017;DHT22;9641;51.494;6.670;2023-01-13T00:56:42;9.60;99.90
19017;DHT22;9641;51.494;6.670;2023-01-13T00:59:13;9.60;99.90
19017;DHT22;9641;51.494;6.670;2023-01-13T01:01:43;9.70;99.90
19017;DHT22;9641;51.494;6.670;2023-01-13T01:04:13;9.70;99.90
19017;DHT22;9641;51.494;6.670;2023-01-13T01:06:41;9.70;99.90
19017;DHT22;9641;51.494;6.670;2023-01-13T01:09:11;9.70;99.90
19017;DHT22;9641;51.494;6.670;2023-01-13T01:11:41;9.70;99.90
19017;DHT22;9641;51.494;6.670;2023-01-13T01:14:12;9.70;99.90
19017;DHT22;9641;51.494;6.670;2023-01-13T01:16:43;9.70;99.90
19017;DHT22;9641;51.494;6.670;2023-01-13T01:19:11;9.70;99.90
19017;DHT22;9641;51.494;6.670;2023-01-13T01:21:38;9.60;99.90
19017;DHT22;9641;51.494;6.670;2023-01-13T01:24:13;9.60;99.90
19017;DHT22;9641;51.494;6.670;2023-01-13T01:26:42;9.50;99.90
19017;DHT22;9641;51.494;6.670;2023-01-13T01:29:13;9.50;99.90
19017;DHT22;9641;51.494;6.670;2023-01-13T01:31:43;9.50;99.90
19017;DHT22;9641;51.494;6.670;2023-01-13T01:34:11;9.50;99.90
19017;DHT22;9641;51.494;6.670;2023-01-13T01:36:38;9.50;99.90
19017;DHT22;9641;51.494;6.670;2023-01-13T01:39:19;9.50;99.90
19017;DHT22;9641;51.494;6.670;2023-01-13T01:41:46;9.50;99.90
19017;DHT22;9641;51.494;6.670;2023-01-13T01:44:48;9.50;99.90
19017;DHT22;9641;51.494;6.670;2023-01-13T01:47:17;9.40;99.90
19017;DHT22;9641;51.494;6.670;2023-01-13T01:49:47;9.40;99.90
19017;DHT22;9641;51.494;6.670;2023-01-13T01:52:18;9.40;99.90
19017;DHT22;9641;51.494;6.670;2023-01-13T01:54:51;9.40;99.90
19017;DHT22;9641;51.494;6.670;2023-01-13T01:57:23;9.40;99.90
19017;DHT22;9641;51.494;6.670;2023-01-13T01:59:54;9.30;99.90
19017;DHT22;9641;51.494;6.670;2023-01-13T02:02:25;9.30;99.90
19017;DHT22;9641;51.494;6.670;2023-01-13T02:04:53;9.30;99.90
19017;DHT22;9641;51.494;6.670;2023-01-13T02:07:31;9.30;99.90
19017;DHT22;9641;51.494;6.670;2023-01-13T02:10:12;9.20;99.90
19017;DHT22;9641;51.494;6.670;2023-01-13T02:12:41;9.20;99.90
19017;DHT22;9641;51.494;6.670;2023-01-13T02:15:16;9.20;99.90
19017;DHT22;9641;51.494;6.670;2023-01-13T02:18:04;9.20;99.90
19017;DHT22;9641;51.494;6.670;2023-01-13T02:20:44;9.20;99.90
19017;DHT22;9641;51.494;6.670;2023-01-13T02:23:53;9.20;99.90
19017;DHT22;9641;51.494;6.670;2023-01-13T02:30:22;9.30;99.90
19017;DHT22;9641;51.494;6.670;2023-01-13T02:36:23;9.10;99.90
19017;DHT22;9641;51.494;6.670;2023-01-13T02:38:55;9.20;99.90
19017;DHT22;9641;51.494;6.670;2023-01-13T02:41:27;9.20;99.90
19017;DHT22;9641;51.494;6.670;2023-01-13T02:44:28;9.20;99.90
19017;DHT22;9641;51.494;6.670;2023-01-13T02:47:03;9.10;99.90
19017;DHT22;9641;51.494;6.670;2023-01-13T02:49:34;9.10;99.90
19017;DHT22;9641;51.494;6.670;2023-01-13T02:52:08;9.10;99.90
19017;DHT22;9641;51.494;6.670;2023-01-13T02:54:38;9.00;99.90
19017;DHT22;9641;51.494;6.670;2023-01-13T02:57:08;9.00;99.90
19017;DHT22;9641;51.494;6.670;2023-01-13T02:59:40;8.90;99.90
19017;DHT22;9641;51.494;6.670;2023-01-13T03:02:17;8.80;99.90
19017;DHT22;9641;51.494;6.670;2023-01-13T03:04:49;8.80;99.90
19017;DHT22;9641;51.494;6.670;2023-01-13T03:07:56;8.80;99.90
19017;DHT22;9641;51.494;6.670;2023-01-13T03:10:49;8.80;99.90
19017;DHT22;9641;51.494;6.670;2023-01-13T03:13:29;8.80;99.90
19017;DHT22;9641;51.494;6.670;2023-01-13T03:16:08;8.70;99.90
19017;DHT22;9641;51.494;6.670;2023-01-13T03:18:47;8.60;99.90
19017;DHT22;9641;51.494;6.670;2023-01-13T03:21:21;8.70;99.90
19017;DHT22;9641;51.494;6.670;2023-01-13T03:23:52;8.70;99.90
19017;DHT22;9641;51.494;6.670;2023-01-13T03:26:29;8.60;99.90
19017;DHT22;9641;51.494;6.670;2023-01-13T03:29:03;8.60;99.90
19017;DHT22;9641;51.494;6.670;2023-01-13T03:31:39;8.60;99.90
19017;DHT22;9641;51.494;6.670;2023-01-13T03:34:16;8.60;99.90
19017;DHT22;9641;51.494;6.670;2023-01-13T03:36:48;8.60;99.90
19017;DHT22;9641;51.494;6.670;2023-01-13T03:39:20;8.70;99.90
19017;DHT22;9641;51.494;6.670;2023-01-13T03:41:54;8.70;99.90
19017;DHT22;9641;51.494;6.670;2023-01-13T03:44:28;8.80;99.90
19017;DHT22;9641;51.494;6.670;2023-01-13T03:47:12;8.80;99.90
19017;DHT22;9641;51.494;6.670;2023-01-13T03:49:50;8.80;99.90
19017;DHT22;9641;51.494;6.670;2023-01-13T03:52:22;8.80;99.90
19017;DHT22;9641;51.494;6.670;2023-01-13T03:54:53;8.80;99.90
19017;DHT22;9641;51.494;6.670;2023-01-13T03:57:27;8.70;99.90
19017;DHT22;9641;51.494;6.670;2023-01-13T03:59:57;8.70;99.90
19017;DHT22;9641;51.494;6.670;2023-01-13T04:02:35;8.70;99.90
19017;DHT22;9641;51.494;6.670;2023-01-13T04:05:08;8.70;99.90
19017;DHT22;9641;51.494;6.670;2023-01-13T04:07:46;8.70;99.90
19017;DHT22;9641;51.494;6.670;2023-01-13T04:10:20;8.70;99.90
19017;DHT22;9641;51.494;6.670;2023-01-13T04:12:52;8.80;99.90
19017;DHT22;9641;51.494;6.670;2023-01-13T04:15:34;8.80;99.90
19017;DHT22;9641;51.494;6.670;2023-01-13T04:18:11;8.80;99.90
19017;DHT22;9641;51.494;6.670;2023-01-13T04:20:41;8.80;99.90
19017;DHT22;9641;51.494;6.670;2023-01-13T04:23:11;8.80;99.90
19017;DHT22;9641;51.494;6.670;2023-01-13T04:25:42;8.80;99.90
19017;DHT22;9641;51.494;6.670;2023-01-13T04:28:11;8.80;99.90
19017;DHT22;9641;51.494;6.670;2023-01-13T04:30:40;8.80;94.00
19017;DHT22;9641;51.494;6.670;2023-01-13T04:33:08;8.80;98.70
19017;DHT22;9641;51.494;6.670;2023-01-13T04:35:39;8.80;98.50
19017;DHT22;9641;51.494;6.670;2023-01-13T04:38:08;8.80;96.10
19017;DHT22;9641;51.494;6.670;2023-01-13T04:40:36;8.80;99.90
19017;DHT22;9641;51.494;6.670;2023-01-13T04:43:04;8.80;99.90
19017;DHT22;9641;51.494;6.670;2023-01-13T04:45:33;8.80;99.90
19017;DHT22;9641;51.494;6.670;2023-01-13T04:48:03;8.80;99.90
19017;DHT22;9641;51.494;6.670;2023-01-13T04:50:41;8.90;99.90
19017;DHT22;9641;51.494;6.670;2023-01-13T04:53:09;8.80;99.90
19017;DHT22;9641;51.494;6.670;2023-01-13T04:55:41;8.60;99.90
19017;DHT22;9641;51.494;6.670;2023-01-13T04:58:12;8.50;99.90
19017;DHT22;9641;51.494;6.670;2023-01-13T05:00:39;8.50;99.90
19017;DHT22;9641;51.494;6.670;2023-01-13T05:03:07;8.40;99.90
19017;DHT22;9641;51.494;6.670;2023-01-13T05:05:35;8.40;99.90
19017;DHT22;9641;51.494;6.670;2023-01-13T05:08:04;8.40;99.90
19017;DHT22;9641;51.494;6.670;2023-01-13T05:10:31;8.50;99.90
19017;DHT22;9641;51.494;6.670;2023-01-13T05:12:58;8.60;99.90
19017;DHT22;9641;51.494;6.670;2023-01-13T05:15:44;8.60;99.90
19017;DHT22;9641;51.494;6.670;2023-01-13T05:18:43;8.60;99.90
19017;DHT22;9641;51.494;6.670;2023-01-13T05:21:11;8.70;99.90
19017;DHT22;9641;51.494;6.670;2023-01-13T05:23:53;8.70;99.90
19017;DHT22;9641;51.494;6.670;2023-01-13T05:26:42;8.80;99.90
19017;DHT22;9641;51.494;6.670;2023-01-13T05:29:13;8.80;99.90
19017;DHT22;9641;51.494;6.670;2023-01-13T05:31:41;8.70;99.90
19017;DHT22;9641;51.494;6.670;2023-01-13T05:34:16;8.80;99.90
19017;DHT22;9641;51.494;6.670;2023-01-13T05:36:44;8.80;99.90
19017;DHT22;9641;51.494;6.670;2023-01-13T05:39:16;8.80;99.90
19017;DHT22;9641;51.494;6.670;2023-01-13T05:41:44;8.80;99.80
19017;DHT22;9641;51.494;6.670;2023-01-13T05:44:29;8.80;96.80
19017;DHT22;9641;51.494;6.670;2023-01-13T05:46:56;8.80;94.60
19017;DHT22;9641;51.494;6.670;2023-01-13T05:49:25;8.90;89.60
19017;DHT22;9641;51.494;6.670;2023-01-13T05:51:53;8.80;88.10
19017;DHT22;9641;51.494;6.670;2023-01-13T05:54:25;8.80;76.70
19017;DHT22;9641;51.494;6.670;2023-01-13T05:56:55;8.80;92.10
19017;DHT22;9641;51.494;6.670;2023-01-13T05:59:24;8.70;90.70
19017;DHT22;9641;51.494;6.670;2023-01-13T06:01:51;8.70;91.20
19017;DHT22;9641;51.494;6.670;2023-01-13T06:04:21;8.60;99.90
19017;DHT22;9641;51.494;6.670;2023-01-13T06:12:27;8.50;99.90
19017;DHT22;9641;51.494;6.670;2023-01-13T06:15:09;8.40;99.90
19017;DHT22;9641;51.494;6.670;2023-01-13T06:17:36;8.50;99.90
19017;DHT22;9641;51.494;6.670;2023-01-13T06:20:09;8.40;99.90
19017;DHT22;9641;51.494;6.670;2023-01-13T06:22:38;8.40;99.90
19017;DHT22;9641;51.494;6.670;2023-01-13T06:25:11;8.40;99.90
19017;DHT22;9641;51.494;6.670;2023-01-13T06:27:45;8.40;99.90
19017;DHT22;9641;51.494;6.670;2023-01-13T06:30:20;8.30;99.90
19017;DHT22;9641;51.494;6.670;2023-01-13T06:32:51;8.30;99.90
19017;DHT22;9641;51.494;6.670;2023-01-13T06:35:24;8.30;90.00
19017;DHT22;9641;51.494;6.670;2023-01-13T06:37:55;8.30;52.10
19017;DHT22;9641;51.494;6.670;2023-01-13T06:40:24;8.30;50.20
19017;DHT22;9641;51.494;6.670;2023-01-13T06:43:00;8.30;30.70
19017;DHT22;9641;51.494;6.670;2023-01-13T06:45:47;8.30;21.50
19017;DHT22;9641;51.494;6.670;2023-01-13T06:48:18;8.30;14.80
19017;DHT22;9641;51.494;6.670;2023-01-13T06:50:47;8.20;21.80
19017;DHT22;9641;51.494;6.670;2023-01-13T06:53:23;8.20;6.30
19017;DHT22;9641;51.494;6.670;2023-01-13T06:55:50;8.20;1.00
19017;DHT22;9641;51.494;6.670;2023-01-13T06:58:32;8.20;1.00
19017;DHT22;9641;51.494;6.670;2023-01-13T07:01:02;8.10;1.90
19017;DHT22;9641;51.494;6.670;2023-01-13T07:03:30;8.20;1.00
19017;DHT22;9641;51.494;6.670;2023-01-13T07:06:04;8.10;1.00
19017;DHT22;9641;51.494;6.670;2023-01-13T07:08:33;8.10;1.00
19017;DHT22;9641;51.494;6.670;2023-01-13T07:11:15;8.10;1.00
19017;DHT22;9641;51.494;6.670;2023-01-13T07:14:15;8.10;1.00
19017;DHT22;9641;51.494;6.670;2023-01-13T07:17:09;8.20;1.00
19017;DHT22;9641;51.494;6.670;2023-01-13T07:19:47;8.20;1.00
19017;DHT22;9641;51.494;6.670;2023-01-13T07:22:28;8.20;1.00
19017;DHT22;9641;51.494;6.670;2023-01-13T07:25:00;8.30;1.00
19017;DHT22;9641;51.494;6.670;2023-01-13T07:27:29;8.40;1.00
19017;DHT22;9641;51.494;6.670;2023-01-13T07:30:00;8.40;1.00
19017;DHT22;9641;51.494;6.670;2023-01-13T07:32:30;8.40;1.00
19017;DHT22;9641;51.494;6.670;2023-01-13T07:34:58;8.40;1.00
19017;DHT22;9641;51.494;6.670;2023-01-13T07:37:38;8.40;1.00
19017;DHT22;9641;51.494;6.670;2023-01-13T07:40:09;8.40;1.00
19017;DHT22;9641;51.494;6.670;2023-01-13T07:42:41;8.40;1.00
19017;DHT22;9641;51.494;6.670;2023-01-13T07:45:27;8.40;1.00
19017;DHT22;9641;51.494;6.670;2023-01-13T07:47:56;8.40;1.00
19017;DHT22;9641;51.494;6.670;2023-01-13T07:50:26;8.40;1.00
19017;DHT22;9641;51.494;6.670;2023-01-13T07:52:56;8.50;1.00
19017;DHT22;9641;51.494;6.670;2023-01-13T07:55:24;8.50;1.00
19017;DHT22;9641;51.494;6.670;2023-01-13T07:57:53;8.60;1.00
19017;DHT22;9641;51.494;6.670;2023-01-13T08:00:31;8.60;1.00
19017;DHT22;9641;51.494;6.670;2023-01-13T08:02:59;8.60;1.00
19017;DHT22;9641;51.494;6.670;2023-01-13T08:05:27;8.60;1.00
19017;DHT22;9641;51.494;6.670;2023-01-13T08:07:58;8.70;1.00
19017;DHT22;9641;51.494;6.670;2023-01-13T08:10:33;8.70;1.00
19017;DHT22;9641;51.494;6.670;2023-01-13T08:13:12;8.70;1.00
19017;DHT22;9641;51.494;6.670;2023-01-13T08:15:51;8.80;1.00
19017;DHT22;9641;51.494;6.670;2023-01-13T08:18:20;8.80;1.00
19017;DHT22;9641;51.494;6.670;2023-01-13T08:20:48;8.70;1.00
19017;DHT22;9641;51.494;6.670;2023-01-13T08:23:17;8.80;1.00
19017;DHT22;9641;51.494;6.670;2023-01-13T08:25:44;8.80;1.00
19017;DHT22;9641;51.494;6.670;2023-01-13T08:28:15;8.80;1.00
19017;DHT22;9641;51.494;6.670;2023-01-13T08:30:44;8.80;1.00
19017;DHT22;9641;51.494;6.670;2023-01-13T08:33:12;8.80;1.00
19017;DHT22;9641;51.494;6.670;2023-01-13T08:35:41;8.80;1.00
19017;DHT22;9641;51.494;6.670;2023-01-13T08:38:10;8.80;1.00
19017;DHT22;9641;51.494;6.670;2023-01-13T08:40:40;8.80;1.00
19017;DHT22;9641;51.494;6.670;2023-01-13T08:43:09;8.80;1.00
19017;DHT22;9641;51.494;6.670;2023-01-13T08:45:37;8.80;1.00
19017;DHT22;9641;51.494;6.670;2023-01-13T08:48:16;8.80;1.00
19017;DHT22;9641;51.494;6.670;2023-01-13T08:50:44;8.70;1.00
19017;DHT22;9641;51.494;6.670;2023-01-13T08:53:15;8.70;1.00
19017;DHT22;9641;51.494;6.670;2023-01-13T08:55:44;8.70;1.00
19017;DHT22;9641;51.494;6.670;2023-01-13T08:58:15;8.70;1.00
19017;DHT22;9641;51.494;6.670;2023-01-13T09:00:45;8.70;1.00
19017;DHT22;9641;51.494;6.670;2023-01-13T09:03:15;8.70;1.00
19017;DHT22;9641;51.494;6.670;2023-01-13T09:05:45;8.70;1.00
19017;DHT22;9641;51.494;6.670;2023-01-13T09:08:12;8.70;1.00
19017;DHT22;9641;51.494;6.670;2023-01-13T09:10:45;8.70;1.00
19017;DHT22;9641;51.494;6.670;2023-01-13T09:13:16;8.70;1.00
19017;DHT22;9641;51.494;6.670;2023-01-13T09:15:51;8.70;1.00
19017;DHT22;9641;51.494;6.670;2023-01-13T09:18:24;8.80;1.00
19017;DHT22;9641;51.494;6.670;2023-01-13T09:20:57;8.80;1.00
19017;DHT22;9641;51.494;6.670;2023-01-13T09:23:27;8.80;1.00
19017;DHT22;9641;51.494;6.670;2023-01-13T09:25:55;8.80;1.00
19017;DHT22;9641;51.494;6.670;2023-01-13T09:28:36;8.90;1.00
19017;DHT22;9641;51.494;6.670;2023-01-13T09:31:04;8.90;1.00
19017;DHT22;9641;51.494;6.670;2023-01-13T09:33:33;8.90;1.00
19017;DHT22;9641;51.494;6.670;2023-01-13T09:36:19;8.90;1.00
19017;DHT22;9641;51.494;6.670;2023-01-13T09:38:53;9.00;1.00
19017;DHT22;9641;51.494;6.670;2023-01-13T09:41:22;9.00;1.00
19017;DHT22;9641;51.494;6.670;2023-01-13T09:44:15;9.00;1.00
19017;DHT22;9641;51.494;6.670;2023-01-13T09:46:47;9.00;1.00
19017;DHT22;9641;51.494;6.670;2023-01-13T09:49:23;9.10;1.00
19017;DHT22;9641;51.494;6.670;2023-01-13T09:51:56;9.10;1.00
19017;DHT22;9641;51.494;6.670;2023-01-13T09:54:30;9.20;1.00
19017;DHT22;9641;51.494;6.670;2023-01-13T09:57:08;9.20;1.00
19017;DHT22;9641;51.494;6.670;2023-01-13T09:59:38;9.20;99.90
19017;DHT22;9641;51.494;6.670;2023-01-13T10:02:24;9.20;99.90
19017;DHT22;9641;51.494;6.670;2023-01-13T10:05:21;9.30;99.90
19017;DHT22;9641;51.494;6.670;2023-01-13T10:08:01;9.40;99.90
19017;DHT22;9641;51.494;6.670;2023-01-13T10:10:35;9.40;1.00
19017;DHT22;9641;51.494;6.670;2023-01-13T10:13:14;9.40;1.00
19017;DHT22;9641;51.494;6.670;2023-01-13T10:15:54;9.50;1.00
19017;DHT22;9641;51.494;6.670;2023-01-13T10:18:32;9.60;1.00
19017;DHT22;9641;51.494;6.670;2023-01-13T10:21:18;9.70;1.00
19017;DHT22;9641;51.494;6.670;2023-01-13T10:23:58;9.70;1.00
19017;DHT22;9641;51.494;6.670;2023-01-13T10:26:51;9.90;99.90
19017;DHT22;9641;51.494;6.670;2023-01-13T10:29:24;10.20;99.90
19017;DHT22;9641;51.494;6.670;2023-01-13T10:31:53;10.50;1.00
19017;DHT22;9641;51.494;6.670;2023-01-13T10:34:49;10.70;1.00
19017;DHT22;9641;51.494;6.670;2023-01-13T10:37:36;11.20;1.00
19017;DHT22;9641;51.494;6.670;2023-01-13T10:40:16;11.50;99.90
19017;DHT22;9641;51.494;6.670;2023-01-13T10:42:47;11.40;92.20
19017;DHT22;9641;51.494;6.670;2023-01-13T10:45:28;11.40;99.90
19017;DHT22;9641;51.494;6.670;2023-01-13T10:48:05;11.30;1.00
19017;DHT22;9641;51.494;6.670;2023-01-13T10:50:36;11.10;1.00
19017;DHT22;9641;51.494;6.670;2023-01-13T10:53:21;10.70;1.00
19017;DHT22;9641;51.494;6.670;2023-01-13T10:56:02;10.40;99.90
19017;DHT22;9641;51.494;6.670;2023-01-13T10:58:32;10.20;1.00
19017;DHT22;9641;51.494;6.670;2023-01-13T11:01:23;10.00;1.00
19017;DHT22;9641;51.494;6.670;2023-01-13T11:03:55;9.90;1.00
19017;DHT22;9641;51.494;6.670;2023-01-13T11:06:35;9.90;99.90
19017;DHT22;9641;51.494;6.670;2023-01-13T11:09:18;9.90;1.00
19017;DHT22;9641;51.494;6.670;2023-01-13T11:11:50;9.90;1.00
19017;DHT22;9641;51.494;6.670;2023-01-13T11:14:28;10.00;1.00
19017;DHT22;9641;51.494;6.670;2023-01-13T11:17:33;10.00;1.00
19017;DHT22;9641;51.494;6.670;2023-01-13T11:20:12;10.00;1.00
19017;DHT22;9641;51.494;6.670;2023-01-13T11:22:45;10.00;1.00
19017;DHT22;9641;51.494;6.670;2023-01-13T11:25:24;10.10;1.00
19017;DHT22;9641;51.494;6.670;2023-01-13T11:28:01;10.20;99.90
19017;DHT22;9641;51.494;6.670;2023-01-13T11:30:37;10.20;99.90
19017;DHT22;9641;51.494;6.670;2023-01-13T11:33:28;10.20;99.90
19017;DHT22;9641;51.494;6.670;2023-01-13T11:36:04;10.20;1.00
19017;DHT22;9641;51.494;6.670;2023-01-13T11:38:39;10.20;99.90
19017;DHT22;9641;51.494;6.670;2023-01-13T11:41:23;9.90;99.90
19017;DHT22;9641;51.494;6.670;2023-01-13T11:44:07;9.50;1.00
19017;DHT22;9641;51.494;6.670;2023-01-13T11:46:43;9.30;1.00
19017;DHT22;9641;51.494;6.670;2023-01-13T11:49:33;9.10;1.00
19017;DHT22;9641;51.494;6.670;2023-01-13T11:52:11;8.90;1.00
19017;DHT22;9641;51.494;6.670;2023-01-13T11:55:04;8.80;4.80
19017;DHT22;9641;51.494;6.670;2023-01-13T11:58:03;8.80;1.00
19017;DHT22;9641;51.494;6.670;2023-01-13T12:00:51;8.70;1.00
19017;DHT22;9641;51.494;6.670;2023-01-13T12:03:29;8.70;31.10
19017;DHT22;9641;51.494;6.670;2023-01-13T12:06:13;8.50;99.90
19017;DHT22;9641;51.494;6.670;2023-01-13T12:09:25;8.50;98.30
19017;DHT22;9641;51.494;6.670;2023-01-13T12:12:02;8.50;99.90
19017;DHT22;9641;51.494;6.670;2023-01-13T12:20:50;8.70;1.00
19017;DHT22;9641;51.494;6.670;2023-01-13T12:23:29;8.80;1.00
19017;DHT22;9641;51.494;6.670;2023-01-13T12:26:10;8.90;1.00
19017;DHT22;9641;51.494;6.670;2023-01-13T12:28:45;9.00;1.00
19017;DHT22;9641;51.494;6.670;2023-01-13T12:31:17;9.20;1.00
19017;DHT22;9641;51.494;6.670;2023-01-13T12:33:59;9.40;1.00
19017;DHT22;9641;51.494;6.670;2023-01-13T12:36:40;9.50;1.00
19017;DHT22;9641;51.494;6.670;2023-01-13T12:39:20;9.50;1.00
19017;DHT22;9641;51.494;6.670;2023-01-13T12:41:57;9.60;1.00
19017;DHT22;9641;51.494;6.670;2023-01-13T12:45:18;9.50;1.00
19017;DHT22;9641;51.494;6.670;2023-01-13T12:47:49;9.50;1.00
19017;DHT22;9641;51.494;6.670;2023-01-13T12:50:40;9.40;1.00
19017;DHT22;9641;51.494;6.670;2023-01-13T12:56:47;9.30;1.00
19017;DHT22;9641;51.494;6.670;2023-01-13T12:59:35;9.30;1.00
19017;DHT22;9641;51.494;6.670;2023-01-13T13:08:23;9.40;1.00
19017;DHT22;9641;51.494;6.670;2023-01-13T13:11:19;9.40;1.00
19017;DHT22;9641;51.494;6.670;2023-01-13T13:14:05;9.20;1.00
19017;DHT22;9641;51.494;6.670;2023-01-13T13:16:48;9.10;1.00
19017;DHT22;9641;51.494;6.670;2023-01-13T13:19:45;9.10;1.00
19017;DHT22;9641;51.494;6.670;2023-01-13T13:22:37;9.10;1.00
19017;DHT22;9641;51.494;6.670;2023-01-13T13:25:27;9.10;1.00
19017;DHT22;9641;51.494;6.670;2023-01-13T13:28:21;9.10;1.00
19017;DHT22;9641;51.494;6.670;2023-01-13T13:31:20;9.10;1.00
19017;DHT22;9641;51.494;6.670;2023-01-13T13:37:03;9.10;1.00
19017;DHT22;9641;51.494;6.670;2023-01-13T13:39:40;9.10;1.00
19017;DHT22;9641;51.494;6.670;2023-01-13T13:42:58;9.10;1.00
19017;DHT22;9641;51.494;6.670;2023-01-13T13:45:51;9.10;1.00
19017;DHT22;9641;51.494;6.670;2023-01-13T13:48:36;9.10;1.00
19017;DHT22;9641;51.494;6.670;2023-01-13T13:51:26;9.10;1.00
19017;DHT22;9641;51.494;6.670;2023-01-13T13:54:21;9.10;1.00
19017;DHT22;9641;51.494;6.670;2023-01-13T13:56:50;9.10;1.00
19017;DHT22;9641;51.494;6.670;2023-01-13T13:59:31;9.10;1.00
19017;DHT22;9641;51.494;6.670;2023-01-13T14:02:17;9.00;1.00
19017;DHT22;9641;51.494;6.670;2023-01-13T14:04:49;9.00;1.00
19017;DHT22;9641;51.494;6.670;2023-01-13T14:07:47;9.00;1.00
19017;DHT22;9641;51.494;6.670;2023-01-13T14:10:51;9.10;1.00
19017;DHT22;9641;51.494;6.670;2023-01-13T14:23:35;8.40;99.90
19017;DHT22;9641;51.494;6.670;2023-01-13T14:26:07;8.30;99.90
19017;DHT22;9641;51.494;6.670;2023-01-13T14:28:55;8.40;99.90
19017;DHT22;9641;51.494;6.670;2023-01-13T14:31:26;8.30;99.90
19017;DHT22;9641;51.494;6.670;2023-01-13T14:34:01;8.30;99.90
19017;DHT22;9641;51.494;6.670;2023-01-13T14:36:48;8.30;99.90
19017;DHT22;9641;51.494;6.670;2023-01-13T14:39:30;8.30;99.90
19017;DHT22;9641;51.494;6.670;2023-01-13T14:42:10;8.30;99.90
19017;DHT22;9641;51.494;6.670;2023-01-13T14:44:45;8.20;99.90
19017;DHT22;9641;51.494;6.670;2023-01-13T14:47:22;8.20;99.90
19017;DHT22;9641;51.494;6.670;2023-01-13T14:50:18;8.20;99.90
19017;DHT22;9641;51.494;6.670;2023-01-13T14:56:59;8.10;99.90
19017;DHT22;9641;51.494;6.670;2023-01-13T14:59:58;8.10;99.90
19017;DHT22;9641;51.494;6.670;2023-01-13T15:02:46;8.20;99.90
19017;DHT22;9641;51.494;6.670;2023-01-13T15:05:51;8.30;99.90
19017;DHT22;9641;51.494;6.670;2023-01-13T15:12:42;8.30;99.90
19017;DHT22;9641;51.494;6.670;2023-01-13T15:15:37;8.40;89.80
19017;DHT22;9641;51.494;6.670;2023-01-13T15:21:42;8.50;11.10
19017;DHT22;9641;51.494;6.670;2023-01-13T15:24:35;8.60;1.00
19017;DHT22;9641;51.494;6.670;2023-01-13T15:27:17;8.60;1.00
19017;DHT22;9641;51.494;6.670;2023-01-13T15:30:13;8.70;1.00
19017;DHT22;9641;51.494;6.670;2023-01-13T15:32:46;8.80;1.00
19017;DHT22;9641;51.494;6.670;2023-01-13T15:35:21;8.80;1.00
19017;DHT22;9641;51.494;6.670;2023-01-13T15:38:11;8.90;1.00
19017;DHT22;9641;51.494;6.670;2023-01-13T15:40:47;8.90;1.00
19017;DHT22;9641;51.494;6.670;2023-01-13T15:43:59;9.00;1.00
19017;DHT22;9641;51.494;6.670;2023-01-13T15:46:52;9.00;1.00
19017;DHT22;9641;51.494;6.670;2023-01-13T15:49:43;9.00;1.00
19017;DHT22;9641;51.494;6.670;2023-01-13T15:52:56;9.00;1.00
19017;DHT22;9641;51.494;6.670;2023-01-13T15:55:32;9.00;1.00
19017;DHT22;9641;51.494;6.670;2023-01-13T15:58:23;9.00;1.00
19017;DHT22;9641;51.494;6.670;2023-01-13T16:00:56;9.00;1.00
19017;DHT22;9641;51.494;6.670;2023-01-13T16:03:29;9.00;1.00
19017;DHT22;9641;51.494;6.670;2023-01-13T16:05:56;9.00;1.00
19017;DHT22;9641;51.494;6.670;2023-01-13T16:08:34;9.00;1.00
19017;DHT22;9641;51.494;6.670;2023-01-13T16:11:05;8.90;1.00
19017;DHT22;9641;51.494;6.670;2023-01-13T16:13:32;8.80;1.00
19017;DHT22;9641;51.494;6.670;2023-01-13T16:15:59;8.70;1.00
19017;DHT22;9641;51.494;6.670;2023-01-13T16:18:27;8.50;11.90
19017;DHT22;9641;51.494;6.670;2023-01-13T16:20:59;8.40;43.80
19017;DHT22;9641;51.494;6.670;2023-01-13T16:23:26;8.30;29.40
19017;DHT22;9641;51.494;6.670;2023-01-13T16:25:55;8.30;26.10
19017;DHT22;9641;51.494;6.670;2023-01-13T16:28:29;8.40;4.70
19017;DHT22;9641;51.494;6.670;2023-01-13T16:31:15;8.40;1.00
19017;DHT22;9641;51.494;6.670;2023-01-13T16:33:53;8.50;1.00
19017;DHT22;9641;51.494;6.670;2023-01-13T16:36:52;8.50;1.00
19017;DHT22;9641;51.494;6.670;2023-01-13T16:39:32;8.60;1.00
19017;DHT22;9641;51.494;6.670;2023-01-13T16:42:01;8.70;1.00
19017;DHT22;9641;51.494;6.670;2023-01-13T16:44:35;8.80;1.00
19017;DHT22;9641;51.494;6.670;2023-01-13T16:47:03;8.80;1.00
19017;DHT22;9641;51.494;6.670;2023-01-13T16:49:40;8.90;1.00
19017;DHT22;9641;51.494;6.670;2023-01-13T16:52:12;8.90;1.00
19017;DHT22;9641;51.494;6.670;2023-01-13T16:54:41;8.90;1.00
19017;DHT22;9641;51.494;6.670;2023-01-13T16:57:27;9.00;1.00
19017;DHT22;9641;51.494;6.670;2023-01-13T17:00:01;9.00;1.00
19017;DHT22;9641;51.494;6.670;2023-01-13T17:03:00;9.00;1.00
19017;DHT22;9641;51.494;6.670;2023-01-13T17:05:45;9.00;1.00
19017;DHT22;9641;51.494;6.670;2023-01-13T17:08:34;9.00;1.00
19017;DHT22;9641;51.494;6.670;2023-01-13T17:11:02;9.00;1.00
19017;DHT22;9641;51.494;6.670;2023-01-13T17:13:31;8.90;1.00
19017;DHT22;9641;51.494;6.670;2023-01-13T17:16:01;8.50;31.00
19017;DHT22;9641;51.494;6.670;2023-01-13T17:18:33;8.30;93.30
19017;DHT22;9641;51.494;6.670;2023-01-13T17:21:06;8.20;99.90
19017;DHT22;9641;51.494;6.670;2023-01-13T17:24:19;8.10;99.90
19017;DHT22;9641;51.494;6.670;2023-01-13T17:26:59;8.00;99.90
19017;DHT22;9641;51.494;6.670;2023-01-13T17:29:31;8.10;93.70
19017;DHT22;9641;51.494;6.670;2023-01-13T17:32:13;8.10;64.70
19017;DHT22;9641;51.494;6.670;2023-01-13T17:34:42;8.20;1.00
19017;DHT22;9641;51.494;6.670;2023-01-13T17:37:29;8.20;4.50
19017;DHT22;9641;51.494;6.670;2023-01-13T17:40:27;8.30;1.00
19017;DHT22;9641;51.494;6.670;2023-01-13T17:43:02;8.40;1.00
19017;DHT22;9641;51.494;6.670;2023-01-13T17:45:46;8.40;1.00
19017;DHT22;9641;51.494;6.670;2023-01-13T17:48:19;8.40;1.00
19017;DHT22;9641;51.494;6.670;2023-01-13T17:50:47;8.50;1.00
19017;DHT22;9641;51.494;6.670;2023-01-13T17:53:22;8.60;1.00
19017;DHT22;9641;51.494;6.670;2023-01-13T17:55:53;8.60;1.00
19017;DHT22;9641;51.494;6.670;2023-01-13T17:58:25;8.60;1.00
19017;DHT22;9641;51.494;6.670;2023-01-13T18:01:05;8.70;1.00
19017;DHT22;9641;51.494;6.670;2023-01-13T18:03:35;8.80;1.00
19017;DHT22;9641;51.494;6.670;2023-01-13T18:06:21;8.70;1.00